createdAt,value
2018-11-22T12:17:47.995Z,48.02
2018-11-22T12:20:16.834Z,47.72
2018-11-22T12:22:46.327Z,48.17
2018-11-22T12:25:15.843Z,48.39
2018-11-22T12:27:44.822Z,48.12
2018-11-22T12:30:15.610Z,47.98
2018-11-22T12:32:46.788Z,48.00
2018-11-22T12:35:20.260Z,47.91
2018-11-22T12:38:52.516Z,48.15
2018-11-22T12:41:20.862Z,48.59
2018-11-22T12:43:49.089Z,48.57
2018-11-22T12:46:17.235Z,48.19
2018-11-22T12:48:45.400Z,48.65
2018-11-22T12:51:13.554Z,48.25
2018-11-22T12:53:41.695Z,47.96
2018-11-22T12:56:09.859Z,48.31
2018-11-22T12:58:38.008Z,48.52
2018-11-22T13:01:06.272Z,48.51
2018-11-22T13:03:34.419Z,47.94
2018-11-22T13:06:02.582Z,47.80
2018-11-22T13:08:30.731Z,48.21
2018-11-22T13:10:58.892Z,48.39
2018-11-22T13:13:27.127Z,48.39
2018-11-22T13:15:55.279Z,48.23
2018-11-22T13:18:23.526Z,48.95
2018-11-22T13:20:51.690Z,48.22
2018-11-22T13:23:19.837Z,48.23
2018-11-22T13:25:47.987Z,48.39
2018-11-22T13:28:16.130Z,48.72
2018-11-22T13:30:44.293Z,48.05
2018-11-22T13:33:12.449Z,48.14
2018-11-22T13:35:40.611Z,48.66
2018-11-22T13:38:08.760Z,48.61
2018-11-22T13:40:36.919Z,48.24
2018-11-22T13:43:05.456Z,48.34
2018-11-22T13:45:33.619Z,48.74
2018-11-22T13:48:01.787Z,48.65
2018-11-22T13:50:32.117Z,48.89
2018-11-22T13:53:01.731Z,48.60
2018-11-22T13:55:29.983Z,48.73
2018-11-22T13:57:58.139Z,48.83
2018-11-22T14:00:29.620Z,48.63
2018-11-22T14:03:00.067Z,49.02
2018-11-22T14:05:28.207Z,49.31
2018-11-22T14:07:56.367Z,48.92
2018-11-22T14:10:24.529Z,49.52
2018-11-22T14:12:52.683Z,49.31
2018-11-22T14:15:22.154Z,49.54
2018-11-22T14:17:51.685Z,49.25
2018-11-22T14:20:21.371Z,49.87
2018-11-22T14:22:49.656Z,49.86
2018-11-22T14:25:18.126Z,50.34
2018-11-22T14:27:47.339Z,49.79
2018-11-22T14:30:16.835Z,50.27
2018-11-22T14:32:45.648Z,50.54
2018-11-22T14:35:15.033Z,50.17
2018-11-22T14:37:43.715Z,50.35
2018-11-22T14:40:14.148Z,50.35
2018-11-22T14:42:42.519Z,50.46
2018-11-22T14:45:11.939Z,51.18
2018-11-22T14:47:40.407Z,50.87
2018-11-22T14:50:10.660Z,51.26
2018-11-22T14:52:39.111Z,51.51
2018-11-22T14:55:08.019Z,52.10
2018-11-22T14:57:36.363Z,51.60
2018-11-22T15:00:06.340Z,51.86
2018-11-22T15:02:34.565Z,52.18
2018-11-22T15:05:02.747Z,52.59
2018-11-22T15:07:30.899Z,52.78
2018-11-22T15:09:59.093Z,52.82
2018-11-22T15:12:27.243Z,52.99
2018-11-22T15:14:55.443Z,52.72
2018-11-22T15:17:23.591Z,52.91
2018-11-22T15:19:51.760Z,52.87
2018-11-22T15:22:19.911Z,53.01
2018-11-22T15:24:48.147Z,53.17
2018-11-22T15:27:16.287Z,53.92
2018-11-22T15:29:44.449Z,54.05
2018-11-22T15:32:12.776Z,53.81
2018-11-22T15:34:40.936Z,53.81
2018-11-22T15:37:09.112Z,53.93
2018-11-22T15:39:37.501Z,54.26
2018-11-22T15:42:05.769Z,54.40
2018-11-22T15:44:34.063Z,54.19
2018-11-22T15:47:02.216Z,54.77
2018-11-22T15:49:30.392Z,54.36
2018-11-22T15:51:58.663Z,55.20
2018-11-22T15:54:26.879Z,54.96
2018-11-22T15:56:55.147Z,54.94
2018-11-22T15:59:23.460Z,55.09
2018-11-22T16:01:51.617Z,54.82
2018-11-22T16:04:19.762Z,55.11
2018-11-22T16:06:48.060Z,55.45
2018-11-22T16:09:16.299Z,55.71
2018-11-22T16:11:44.583Z,55.36
2018-11-22T16:14:13.092Z,55.22
2018-11-22T16:16:41.352Z,55.96
2018-11-22T16:19:09.523Z,55.56
2018-11-22T16:21:37.725Z,55.95
2018-11-22T16:24:06.011Z,55.65
2018-11-22T16:26:34.258Z,55.67
2018-11-22T16:29:02.415Z,56.14
2018-11-22T16:31:30.604Z,56.54
2018-11-22T16:33:58.780Z,56.58
2018-11-22T16:36:26.911Z,56.67
2018-11-22T16:38:55.055Z,56.23
2018-11-22T16:41:23.223Z,56.64
2018-11-22T16:43:51.373Z,56.72
2018-11-22T16:46:19.552Z,56.76
2018-11-22T16:48:47.715Z,56.73
2018-11-22T16:51:15.867Z,56.76
2018-11-22T16:53:44.128Z,56.85
2018-11-22T16:56:12.290Z,56.82
2018-11-22T16:58:40.519Z,57.11
2018-11-22T17:01:08.715Z,57.21
2018-11-22T17:03:36.872Z,56.80
2018-11-22T17:06:05.608Z,56.79
2018-11-22T17:08:33.847Z,57.37
2018-11-22T17:11:02.369Z,57.06
2018-11-22T17:13:30.243Z,57.10
2018-11-22T17:15:58.453Z,57.67
2018-11-22T17:18:26.607Z,57.73
2018-11-22T17:20:54.806Z,57.43
2018-11-22T17:23:23.017Z,57.72
2018-11-22T17:25:51.271Z,57.67
2018-11-22T17:28:19.451Z,58.24
2018-11-22T17:30:47.614Z,58.06
2018-11-22T17:33:15.785Z,58.09
2018-11-22T17:35:44.836Z,57.72
2018-11-22T17:38:13.728Z,58.15
2018-11-22T17:40:44.472Z,58.23
2018-11-22T17:43:13.314Z,57.90
2018-11-22T17:45:43.127Z,57.91
2018-11-22T17:48:11.547Z,58.24
2018-11-22T17:50:41.219Z,58.38
2018-11-22T17:53:10.072Z,58.14
2018-11-22T17:55:38.300Z,58.51
2018-11-22T17:58:06.691Z,58.45
2018-11-22T18:00:37.295Z,57.99
2018-11-22T18:03:06.368Z,58.46
2018-11-22T18:05:34.765Z,58.61
2018-11-22T18:08:02.903Z,58.16
2018-11-22T18:10:33.317Z,58.71
2018-11-22T18:13:01.744Z,58.23
2018-11-22T18:15:31.423Z,58.48
2018-11-22T18:17:59.621Z,58.79
2018-11-22T18:20:29.253Z,59.25
2018-11-22T18:22:58.130Z,59.57
2018-11-22T18:25:27.855Z,59.50
2018-11-22T18:27:56.002Z,59.52
2018-11-22T18:30:25.839Z,59.03
2018-11-22T18:32:55.475Z,58.95
2018-11-22T18:35:23.626Z,58.56
2018-11-22T18:37:51.774Z,58.77
2018-11-22T18:40:21.204Z,59.21
2018-11-22T18:42:50.382Z,59.82
2018-11-22T18:45:23.879Z,59.65
2018-11-22T18:47:52.058Z,60.05
2018-11-22T18:50:21.584Z,59.72
2018-11-22T18:52:49.851Z,59.33
2018-11-22T18:55:18.003Z,59.24
2018-11-22T18:57:46.452Z,59.43
2018-11-22T19:00:20.927Z,58.82
2018-11-22T19:02:49.223Z,58.79
2018-11-22T19:05:18.027Z,58.87
2018-11-22T19:07:47.296Z,58.99
2018-11-22T19:10:18.406Z,58.95
2018-11-22T19:12:47.535Z,59.08
2018-11-22T19:15:17.071Z,58.96
2018-11-22T19:17:45.628Z,59.06
2018-11-22T19:20:16.994Z,58.86
2018-11-22T19:22:45.966Z,58.83
2018-11-22T19:25:14.193Z,58.50
2018-11-22T19:27:42.844Z,58.60
2018-11-22T19:30:14.480Z,58.32
2018-11-22T19:32:43.391Z,58.45
2018-11-22T19:35:12.579Z,58.90
2018-11-22T19:37:40.971Z,58.77
2018-11-22T19:40:12.306Z,59.16
2018-11-22T19:42:40.699Z,58.99
2018-11-22T19:45:10.638Z,58.80
2018-11-22T19:47:38.811Z,58.93
2018-11-22T19:50:09.511Z,59.08
2018-11-22T19:52:37.679Z,58.97
2018-11-22T19:55:07.651Z,58.83
2018-11-22T19:57:35.848Z,58.85
2018-11-22T20:00:04.212Z,58.77
2018-11-22T20:02:32.384Z,58.78
2018-11-22T20:05:00.545Z,59.11
2018-11-22T20:07:28.711Z,58.98
2018-11-22T20:09:56.868Z,59.10
2018-11-22T20:12:25.144Z,58.90
2018-11-22T20:14:53.303Z,58.73
2018-11-22T20:17:21.468Z,59.26
2018-11-22T20:19:49.627Z,59.36
2018-11-22T20:22:17.959Z,59.40
2018-11-22T20:24:46.111Z,59.00
2018-11-22T20:27:14.282Z,59.40
2018-11-22T20:29:42.459Z,59.27
2018-11-22T20:32:10.619Z,58.98
2018-11-22T20:34:39.128Z,59.44
2018-11-22T20:37:07.284Z,59.39
2018-11-22T20:39:35.452Z,59.15
2018-11-22T20:42:03.615Z,59.57
2018-11-22T20:44:31.771Z,59.42
2018-11-22T20:46:59.919Z,59.66
2018-11-22T20:49:28.076Z,59.16
2018-11-22T20:51:56.218Z,59.62
2018-11-22T20:54:24.378Z,59.51
2018-11-22T20:56:52.554Z,59.44
2018-11-22T20:59:20.735Z,59.39
2018-11-22T21:01:51.786Z,59.44
2018-11-22T21:04:17.063Z,59.57
2018-11-22T21:06:45.277Z,59.45
2018-11-22T21:09:13.440Z,58.99
2018-11-22T21:11:43.469Z,59.28
2018-11-22T21:14:09.786Z,59.55
2018-11-22T21:16:41.391Z,59.66
2018-11-22T21:19:09.550Z,59.75
2018-11-22T21:21:37.692Z,59.50
2018-11-22T21:24:06.230Z,60.10
2018-11-22T21:26:34.375Z,60.17
2018-11-22T21:29:02.527Z,60.49
2018-11-22T21:31:30.672Z,61.04
2018-11-22T21:33:58.828Z,61.05
2018-11-22T21:36:26.971Z,61.31
2018-11-22T21:38:55.248Z,61.20
2018-11-22T21:41:23.413Z,61.58
2018-11-22T21:43:51.562Z,61.17
2018-11-22T21:46:25.036Z,61.79
2018-11-22T21:48:53.267Z,61.62
2018-11-22T21:51:21.403Z,61.08
2018-11-22T21:53:49.567Z,61.32
2018-11-22T21:56:17.771Z,61.07
2018-11-22T21:58:45.920Z,60.63
2018-11-22T22:01:14.135Z,60.95
2018-11-22T22:03:42.423Z,60.45
2018-11-22T22:06:10.575Z,60.29
2018-11-22T22:08:38.763Z,60.38
2018-11-22T22:11:06.916Z,60.67
2018-11-22T22:13:35.060Z,60.65
2018-11-22T22:16:03.220Z,60.23
2018-11-22T22:18:31.370Z,60.22
2018-11-22T22:20:59.540Z,60.57
2018-11-22T22:23:27.686Z,60.77
2018-11-22T22:25:55.849Z,60.29
2018-11-22T22:28:23.991Z,60.52
2018-11-22T22:30:52.147Z,60.60
2018-11-22T22:33:20.358Z,60.45
2018-11-22T22:35:48.515Z,60.50
2018-11-22T22:38:16.657Z,60.90
2018-11-22T22:40:44.807Z,60.63
2018-11-22T22:43:12.975Z,61.19
2018-11-22T22:45:41.206Z,60.93
2018-11-22T22:48:09.359Z,61.26
2018-11-22T22:50:37.524Z,60.88
2018-11-22T22:53:05.731Z,60.70
2018-11-22T22:55:33.899Z,60.92
2018-11-22T22:58:02.055Z,60.98
2018-11-22T23:01:03.151Z,61.04
2018-11-22T23:03:31.415Z,60.95
2018-11-22T23:05:59.587Z,60.76
2018-11-22T23:08:27.747Z,60.90
2018-11-22T23:10:55.914Z,61.27
2018-11-22T23:13:24.072Z,60.95
2018-11-22T23:15:52.251Z,61.17
2018-11-22T23:18:20.431Z,61.43
2018-11-22T23:20:48.599Z,61.42
2018-11-22T23:23:16.751Z,61.21
2018-11-22T23:25:44.975Z,61.33
2018-11-22T23:28:13.134Z,60.96
2018-11-22T23:30:41.283Z,61.10
2018-11-22T23:33:09.804Z,60.81
2018-11-22T23:35:37.963Z,61.08
2018-11-22T23:38:06.136Z,61.17
2018-11-22T23:40:34.931Z,61.32
2018-11-22T23:43:03.099Z,61.18
2018-11-22T23:45:32.156Z,61.10
2018-11-22T23:48:00.303Z,61.45
2018-11-22T23:50:29.846Z,61.65
2018-11-22T23:52:58.923Z,61.75
2018-11-22T23:55:27.063Z,61.78
2018-11-22T23:57:55.224Z,61.79
